sensor_id;sensor_type;location;lat;lon;timestamp;P1;durP1;ratioP1;P2;durP2;ratioP2
11245;SDS011;59870;50.106;8.580;2024-02-21T00:03:18;10.47;;;7.57;;
11245;SDS011;59870;50.106;8.580;2024-02-21T00:18:11;11.90;;;7.47;;
11245;SDS011;59870;50.106;8.580;2024-02-21T00:20:44;14.00;;;7.53;;
11245;SDS011;59870;50.106;8.580;2024-02-21T00:27:48;9.97;;;7.57;;
11245;SDS011;59870;50.106;8.580;2024-02-21T00:30:18;8.67;;;7.80;;
11245;SDS011;59870;50.106;8.580;2024-02-21T00:32:48;9.93;;;7.70;;
11245;SDS011;59870;50.106;8.580;2024-02-21T00:35:17;11.80;;;7.67;;
11245;SDS011;59870;50.106;8.580;2024-02-21T00:37:48;9.10;;;7.03;;
11245;SDS011;59870;50.106;8.580;2024-02-21T00:40:17;11.93;;;7.50;;
11245;SDS011;59870;50.106;8.580;2024-02-21T00:42:49;12.47;;;7.67;;
11245;SDS011;59870;50.106;8.580;2024-02-21T00:45:19;11.03;;;7.27;;
11245;SDS011;59870;50.106;8.580;2024-02-21T00:47:47;16.87;;;7.97;;
11245;SDS011;59870;50.106;8.580;2024-02-21T00:50:16;16.13;;;8.10;;
11245;SDS011;59870;50.106;8.580;2024-02-21T00:52:45;18.00;;;9.30;;
11245;SDS011;59870;50.106;8.580;2024-02-21T00:55:17;12.37;;;7.60;;
11245;SDS011;59870;50.106;8.580;2024-02-21T00:57:46;10.10;;;8.13;;
11245;SDS011;59870;50.106;8.580;2024-02-21T01:00:15;11.93;;;8.00;;
11245;SDS011;59870;50.106;8.580;2024-02-21T01:02:45;10.60;;;7.87;;
11245;SDS011;59870;50.106;8.580;2024-02-21T01:05:20;10.07;;;7.87;;
11245;SDS011;59870;50.106;8.580;2024-02-21T01:07:50;11.27;;;9.00;;
11245;SDS011;59870;50.106;8.580;2024-02-21T01:10:29;17.23;;;8.40;;
11245;SDS011;59870;50.106;8.580;2024-02-21T01:13:01;10.67;;;8.30;;
11245;SDS011;59870;50.106;8.580;2024-02-21T01:15:36;10.90;;;7.87;;
11245;SDS011;59870;50.106;8.580;2024-02-21T01:18:08;10.63;;;8.67;;
11245;SDS011;59870;50.106;8.580;2024-02-21T01:20:44;11.87;;;8.57;;
11245;SDS011;59870;50.106;8.580;2024-02-21T01:23:13;8.73;;;7.83;;
11245;SDS011;59870;50.106;8.580;2024-02-21T01:25:45;10.30;;;8.00;;
11245;SDS011;59870;50.106;8.580;2024-02-21T01:28:15;11.23;;;8.50;;
11245;SDS011;59870;50.106;8.580;2024-02-21T01:30:44;8.83;;;7.93;;
11245;SDS011;59870;50.106;8.580;2024-02-21T01:33:14;16.53;;;8.10;;
11245;SDS011;59870;50.106;8.580;2024-02-21T01:35:43;13.93;;;8.10;;
11245;SDS011;59870;50.106;8.580;2024-02-21T01:38:13;12.37;;;8.17;;
11245;SDS011;59870;50.106;8.580;2024-02-21T01:40:45;9.77;;;8.33;;
11245;SDS011;59870;50.106;8.580;2024-02-21T01:43:15;14.37;;;7.70;;
11245;SDS011;59870;50.106;8.580;2024-02-21T01:45:46;11.30;;;7.80;;
11245;SDS011;59870;50.106;8.580;2024-02-21T01:48:18;13.57;;;8.80;;
11245;SDS011;59870;50.106;8.580;2024-02-21T01:50:48;10.13;;;8.13;;
11245;SDS011;59870;50.106;8.580;2024-02-21T01:53:18;13.50;;;8.87;;
11245;SDS011;59870;50.106;8.580;2024-02-21T01:55:53;15.90;;;8.70;;
11245;SDS011;59870;50.106;8.580;2024-02-21T01:58:22;15.63;;;8.63;;
11245;SDS011;59870;50.106;8.580;2024-02-21T02:00:53;10.13;;;9.10;;
11245;SDS011;59870;50.106;8.580;2024-02-21T02:03:25;12.70;;;9.00;;
11245;SDS011;59870;50.106;8.580;2024-02-21T02:05:54;11.27;;;9.10;;
11245;SDS011;59870;50.106;8.580;2024-02-21T02:08:24;9.63;;;8.63;;
11245;SDS011;59870;50.106;8.580;2024-02-21T02:10:54;12.63;;;9.00;;
11245;SDS011;59870;50.106;8.580;2024-02-21T02:13:24;9.17;;;8.37;;
11245;SDS011;59870;50.106;8.580;2024-02-21T02:15:54;12.40;;;7.93;;
11245;SDS011;59870;50.106;8.580;2024-02-21T02:18:23;9.13;;;7.90;;
11245;SDS011;59870;50.106;8.580;2024-02-21T02:20:53;9.97;;;8.90;;
11245;SDS011;59870;50.106;8.580;2024-02-21T02:23:24;10.10;;;7.47;;
11245;SDS011;59870;50.106;8.580;2024-02-21T02:25:54;11.97;;;8.47;;
11245;SDS011;59870;50.106;8.580;2024-02-21T02:28:24;11.40;;;8.60;;
11245;SDS011;59870;50.106;8.580;2024-02-21T02:30:53;8.77;;;7.87;;
11245;SDS011;59870;50.106;8.580;2024-02-21T02:33:23;13.17;;;8.70;;
11245;SDS011;59870;50.106;8.580;2024-02-21T02:35:53;10.17;;;8.20;;
11245;SDS011;59870;50.106;8.580;2024-02-21T02:38:22;8.70;;;7.90;;
11245;SDS011;59870;50.106;8.580;2024-02-21T02:40:52;12.13;;;8.17;;
11245;SDS011;59870;50.106;8.580;2024-02-21T02:43:21;11.10;;;7.47;;
11245;SDS011;59870;50.106;8.580;2024-02-21T02:45:51;8.40;;;7.40;;
11245;SDS011;59870;50.106;8.580;2024-02-21T02:48:20;10.67;;;8.57;;
11245;SDS011;59870;50.106;8.580;2024-02-21T02:50:49;8.80;;;7.70;;
11245;SDS011;59870;50.106;8.580;2024-02-21T02:53:18;11.50;;;8.17;;
11245;SDS011;59870;50.106;8.580;2024-02-21T02:55:47;10.00;;;8.00;;
11245;SDS011;59870;50.106;8.580;2024-02-21T02:58:18;9.13;;;8.10;;
11245;SDS011;59870;50.106;8.580;2024-02-21T03:00:47;10.20;;;8.00;;
11245;SDS011;59870;50.106;8.580;2024-02-21T03:03:16;12.07;;;8.13;;
11245;SDS011;59870;50.106;8.580;2024-02-21T03:05:45;10.50;;;8.17;;
11245;SDS011;59870;50.106;8.580;2024-02-21T03:08:14;8.90;;;8.03;;
11245;SDS011;59870;50.106;8.580;2024-02-21T03:10:43;11.93;;;9.33;;
11245;SDS011;59870;50.106;8.580;2024-02-21T03:13:12;8.73;;;7.80;;
11245;SDS011;59870;50.106;8.580;2024-02-21T03:15:43;8.87;;;7.30;;
11245;SDS011;59870;50.106;8.580;2024-02-21T03:18:13;9.33;;;8.33;;
11245;SDS011;59870;50.106;8.580;2024-02-21T03:20:44;11.47;;;8.13;;
11245;SDS011;59870;50.106;8.580;2024-02-21T03:23:15;8.60;;;7.80;;
11245;SDS011;59870;50.106;8.580;2024-02-21T03:25:44;15.37;;;8.97;;
11245;SDS011;59870;50.106;8.580;2024-02-21T03:28:15;9.30;;;8.03;;
11245;SDS011;59870;50.106;8.580;2024-02-21T03:30:47;14.00;;;8.83;;
11245;SDS011;59870;50.106;8.580;2024-02-21T03:33:20;9.47;;;8.40;;
11245;SDS011;59870;50.106;8.580;2024-02-21T03:35:51;9.03;;;8.17;;
11245;SDS011;59870;50.106;8.580;2024-02-21T03:38:20;10.57;;;9.03;;
11245;SDS011;59870;50.106;8.580;2024-02-21T03:40:49;10.50;;;9.23;;
11245;SDS011;59870;50.106;8.580;2024-02-21T03:43:19;13.57;;;8.93;;
11245;SDS011;59870;50.106;8.580;2024-02-21T03:45:49;11.53;;;9.03;;
11245;SDS011;59870;50.106;8.580;2024-02-21T03:48:18;15.87;;;9.10;;
11245;SDS011;59870;50.106;8.580;2024-02-21T03:50:48;9.97;;;9.07;;
11245;SDS011;59870;50.106;8.580;2024-02-21T03:53:17;10.97;;;9.43;;
11245;SDS011;59870;50.106;8.580;2024-02-21T03:55:46;16.07;;;9.73;;
11245;SDS011;59870;50.106;8.580;2024-02-21T03:58:15;12.90;;;9.67;;
11245;SDS011;59870;50.106;8.580;2024-02-21T04:00:45;10.87;;;9.50;;
11245;SDS011;59870;50.106;8.580;2024-02-21T04:03:16;13.50;;;8.93;;
11245;SDS011;59870;50.106;8.580;2024-02-21T04:08:44;14.63;;;9.33;;
11245;SDS011;59870;50.106;8.580;2024-02-21T04:11:14;10.13;;;8.60;;
11245;SDS011;59870;50.106;8.580;2024-02-21T04:13:44;13.20;;;9.17;;
11245;SDS011;59870;50.106;8.580;2024-02-21T04:16:18;11.20;;;8.57;;
11245;SDS011;59870;50.106;8.580;2024-02-21T04:18:51;12.77;;;9.10;;
11245;SDS011;59870;50.106;8.580;2024-02-21T04:40:33;15.63;;;10.53;;
11245;SDS011;59870;50.106;8.580;2024-02-21T04:43:26;12.43;;;9.30;;
11245;SDS011;59870;50.106;8.580;2024-02-21T04:53:12;17.73;;;9.83;;
11245;SDS011;59870;50.106;8.580;2024-02-21T04:59:03;10.97;;;8.83;;
11245;SDS011;59870;50.106;8.580;2024-02-21T05:05:07;11.20;;;9.70;;
11245;SDS011;59870;50.106;8.580;2024-02-21T05:13:50;12.17;;;8.60;;
11245;SDS011;59870;50.106;8.580;2024-02-21T05:19:29;12.07;;;8.80;;
11245;SDS011;59870;50.106;8.580;2024-02-21T05:21:58;9.73;;;6.93;;
11245;SDS011;59870;50.106;8.580;2024-02-21T05:27:52;12.67;;;7.43;;
11245;SDS011;59870;50.106;8.580;2024-02-21T05:50:02;8.67;;;7.87;;
11245;SDS011;59870;50.106;8.580;2024-02-21T05:55:31;8.87;;;8.00;;
11245;SDS011;59870;50.106;8.580;2024-02-21T05:58:01;11.40;;;7.87;;
11245;SDS011;59870;50.106;8.580;2024-02-21T06:00:30;10.20;;;8.50;;
11245;SDS011;59870;50.106;8.580;2024-02-21T06:02:59;11.77;;;8.10;;
11245;SDS011;59870;50.106;8.580;2024-02-21T06:08:53;9.93;;;8.93;;
11245;SDS011;59870;50.106;8.580;2024-02-21T06:30:40;16.67;;;10.40;;
11245;SDS011;59870;50.106;8.580;2024-02-21T09:14:21;8.50;;;6.33;;
11245;SDS011;59870;50.106;8.580;2024-02-21T09:16:50;9.83;;;6.67;;
11245;SDS011;59870;50.106;8.580;2024-02-21T09:19:18;7.23;;;6.23;;
11245;SDS011;59870;50.106;8.580;2024-02-21T09:21:48;10.43;;;6.57;;
11245;SDS011;59870;50.106;8.580;2024-02-21T09:24:17;9.73;;;6.43;;
11245;SDS011;59870;50.106;8.580;2024-02-21T09:26:48;8.50;;;5.80;;
11245;SDS011;59870;50.106;8.580;2024-02-21T09:29:20;10.70;;;6.67;;
11245;SDS011;59870;50.106;8.580;2024-02-21T09:31:54;7.20;;;6.33;;
11245;SDS011;59870;50.106;8.580;2024-02-21T09:34:22;11.90;;;6.77;;
11245;SDS011;59870;50.106;8.580;2024-02-21T09:36:51;6.73;;;6.13;;
11245;SDS011;59870;50.106;8.580;2024-02-21T09:39:20;11.47;;;6.57;;
11245;SDS011;59870;50.106;8.580;2024-02-21T09:41:50;10.50;;;6.10;;
11245;SDS011;59870;50.106;8.580;2024-02-21T09:44:24;7.33;;;6.63;;
11245;SDS011;59870;50.106;8.580;2024-02-21T09:47:01;8.50;;;6.27;;
11245;SDS011;59870;50.106;8.580;2024-02-21T09:49:32;8.57;;;6.60;;
11245;SDS011;59870;50.106;8.580;2024-02-21T09:55:02;9.33;;;6.27;;
11245;SDS011;59870;50.106;8.580;2024-02-21T10:03:49;8.70;;;6.40;;
11245;SDS011;59870;50.106;8.580;2024-02-21T10:06:23;7.17;;;5.97;;
11245;SDS011;59870;50.106;8.580;2024-02-21T10:08:53;6.67;;;6.03;;
11245;SDS011;59870;50.106;8.580;2024-02-21T10:11:25;6.43;;;5.20;;
11245;SDS011;59870;50.106;8.580;2024-02-21T10:17:05;8.47;;;6.37;;
11245;SDS011;59870;50.106;8.580;2024-02-21T10:22:47;7.33;;;5.50;;
11245;SDS011;59870;50.106;8.580;2024-02-21T10:25:20;6.63;;;5.60;;
11245;SDS011;59870;50.106;8.580;2024-02-21T10:31:05;6.10;;;5.00;;
11245;SDS011;59870;50.106;8.580;2024-02-21T10:33:37;7.67;;;5.67;;
11245;SDS011;59870;50.106;8.580;2024-02-21T10:42:16;9.97;;;6.23;;
11245;SDS011;59870;50.106;8.580;2024-02-21T11:00:52;8.53;;;6.47;;
11245;SDS011;59870;50.106;8.580;2024-02-21T11:03:29;9.10;;;6.30;;
11245;SDS011;59870;50.106;8.580;2024-02-21T11:06:03;7.40;;;6.27;;
11245;SDS011;59870;50.106;8.580;2024-02-21T11:08:33;10.13;;;6.20;;
11245;SDS011;59870;50.106;8.580;2024-02-21T11:14:07;6.50;;;5.90;;
11245;SDS011;59870;50.106;8.580;2024-02-21T11:16:43;9.70;;;6.93;;
11245;SDS011;59870;50.106;8.580;2024-02-21T11:32:17;9.53;;;6.00;;
11245;SDS011;59870;50.106;8.580;2024-02-21T11:34:56;6.30;;;5.70;;
11245;SDS011;59870;50.106;8.580;2024-02-21T11:37:57;11.13;;;6.77;;
11245;SDS011;59870;50.106;8.580;2024-02-21T12:20:12;6.20;;;5.50;;
11245;SDS011;59870;50.106;8.580;2024-02-21T12:22:50;10.40;;;5.53;;
11245;SDS011;59870;50.106;8.580;2024-02-21T12:25:51;6.77;;;5.70;;
11245;SDS011;59870;50.106;8.580;2024-02-21T12:46:59;7.13;;;6.23;;
11245;SDS011;59870;50.106;8.580;2024-02-21T13:02:31;9.37;;;5.67;;
11245;SDS011;59870;50.106;8.580;2024-02-21T13:11:29;6.90;;;6.00;;
11245;SDS011;59870;50.106;8.580;2024-02-21T13:14:00;6.77;;;5.40;;
11245;SDS011;59870;50.106;8.580;2024-02-21T16:10:56;7.63;;;5.70;;
11245;SDS011;59870;50.106;8.580;2024-02-21T16:29:06;7.43;;;6.20;;
11245;SDS011;59870;50.106;8.580;2024-02-21T16:31:39;8.37;;;6.80;;
11245;SDS011;59870;50.106;8.580;2024-02-21T16:47:05;8.47;;;5.73;;
11245;SDS011;59870;50.106;8.580;2024-02-21T16:49:35;6.07;;;5.37;;
11245;SDS011;59870;50.106;8.580;2024-02-21T16:52:04;9.13;;;5.63;;
11245;SDS011;59870;50.106;8.580;2024-02-21T16:54:34;8.90;;;5.57;;
11245;SDS011;59870;50.106;8.580;2024-02-21T16:57:03;6.53;;;5.90;;
11245;SDS011;59870;50.106;8.580;2024-02-21T16:59:38;6.13;;;5.57;;
11245;SDS011;59870;50.106;8.580;2024-02-21T17:02:14;9.57;;;5.80;;
11245;SDS011;59870;50.106;8.580;2024-02-21T17:04:59;7.00;;;5.53;;
11245;SDS011;59870;50.106;8.580;2024-02-21T17:07:30;7.57;;;5.53;;
11245;SDS011;59870;50.106;8.580;2024-02-21T17:10:00;6.90;;;5.70;;
11245;SDS011;59870;50.106;8.580;2024-02-21T17:21:54;7.93;;;6.30;;
11245;SDS011;59870;50.106;8.580;2024-02-21T17:24:39;7.87;;;5.97;;
11245;SDS011;59870;50.106;8.580;2024-02-21T17:27:14;7.27;;;5.77;;
